This is the latest recevied weather packets stored in our database for station/object AE6BH. If no packets are shown the sender has not sent any weather packets the latest 10 day(s).
| Time | Temp. | Humidity | Pressure | Rain* | Wind** | Luminosity | Snow |
|---|---|---|---|---|---|---|---|
| 1778172656 | 20° C | 66% | 1016.9 hPa | 0 mm | - | 642 W/m² | - |
| 1778172352 | 20° C | 67% | 1017 hPa | 0 mm | - | 622 W/m² | - |
| 1778172049 | 19.44° C | 68% | 1016.8 hPa | 0 mm | - | 589 W/m² | - |
| 1778171747 | 20° C | 67% | 1016.9 hPa | 0 mm | - | 571 W/m² | - |
| 1778171445 | 18.89° C | 71% | 1017.2 hPa | 0 mm | - | 539 W/m² | - |
| 1778171144 | 18.33° C | 72% | 1017.1 hPa | 0 mm | - | 548 W/m² | - |
| 1778170842 | 18.89° C | 72% | 1017.1 hPa | 0 mm | - | 508 W/m² | - |
| 1778170538 | 18.89° C | 73% | 1017.2 hPa | 0 mm | - | 492 W/m² | - |
| 1778170235 | 18.33° C | 73% | 1017.2 hPa | 0 mm | - | 474 W/m² | - |
| 1778169931 | 17.78° C | 75% | 1017.2 hPa | 0 mm | - | 454 W/m² | - |
| 1778169628 | 16.67° C | 78% | 1017.2 hPa | 0 mm | - | 428 W/m² | - |
| 1778169323 | 17.22° C | 77% | 1017.3 hPa | 0 mm | - | 380 W/m² | - |
| 1778169020 | 16.67° C | 79% | 1017.3 hPa | 0 mm | - | 342 W/m² | - |
| 1778168717 | 16.67° C | 80% | 1017.3 hPa | 0 mm | - | 335 W/m² | - |
| 1778168414 | 15.56° C | 82% | 1017 hPa | 0 mm | - | 274 W/m² | - |
| 1778168111 | 15° C | 85% | 1017.3 hPa | 0 mm | - | 225 W/m² | - |
| 1778167807 | 14.44° C | 89% | 1017.2 hPa | 0 mm | - | 338 W/m² | - |
| 1778167503 | 14.44° C | 92% | 1017.3 hPa | 0 mm | - | 246 W/m² | - |
| 1778167200 | 13.89° C | 92% | 1017.1 hPa | 0 mm | - | 234 W/m² | - |
| 1778166896 | 13.33° C | 92% | 1017.2 hPa | 0 mm | - | 136 W/m² | - |
| 1778166593 | 13.33° C | 92% | 1017.3 hPa | 0 mm | - | 72 W/m² | - |
| 1778166290 | 13.89° C | 93% | 1017.2 hPa | 0 mm | - | 123 W/m² | - |
| 1778165986 | 13.89° C | 93% | 1017.1 hPa | 0 mm | - | 124 W/m² | - |
| 1778165682 | 13.33° C | 93% | 1017.4 hPa | 0 mm | - | 104 W/m² | - |
| 1778165379 | 13.33° C | 93% | 1017.1 hPa | 0 mm | - | 111 W/m² | - |
* Rain latest hour (hover to see other rain measurements)
** Current wind speed in m/s (hover to see current wind gust speed)